sensor_id;sensor_type;location;lat;lon;timestamp;temperature;humidity
38436;DHT22;24220;48.168;14.024;2023-03-23T00:01:28;16.50;55.30
38436;DHT22;24220;48.168;14.024;2023-03-23T00:03:57;16.50;55.40
38436;DHT22;24220;48.168;14.024;2023-03-23T00:06:27;16.50;55.60
38436;DHT22;24220;48.168;14.024;2023-03-23T00:08:57;16.50;55.50
38436;DHT22;24220;48.168;14.024;2023-03-23T00:11:30;16.50;55.60
38436;DHT22;24220;48.168;14.024;2023-03-23T00:14:00;16.40;55.60
38436;DHT22;24220;48.168;14.024;2023-03-23T00:16:32;16.40;55.70
38436;DHT22;24220;48.168;14.024;2023-03-23T00:19:07;16.40;55.80
38436;DHT22;24220;48.168;14.024;2023-03-23T00:21:36;16.40;55.80
38436;DHT22;24220;48.168;14.024;2023-03-23T00:24:06;16.30;55.90
38436;DHT22;24220;48.168;14.024;2023-03-23T00:26:34;16.30;55.90
38436;DHT22;24220;48.168;14.024;2023-03-23T00:29:06;16.30;55.80
38436;DHT22;24220;48.168;14.024;2023-03-23T00:31:35;16.30;56.50
38436;DHT22;24220;48.168;14.024;2023-03-23T00:34:04;16.30;56.00
38436;DHT22;24220;48.168;14.024;2023-03-23T00:36:32;16.20;55.90
38436;DHT22;24220;48.168;14.024;2023-03-23T00:39:03;16.20;55.90
38436;DHT22;24220;48.168;14.024;2023-03-23T00:41:34;16.10;55.90
38436;DHT22;24220;48.168;14.024;2023-03-23T00:44:06;16.10;55.90
38436;DHT22;24220;48.168;14.024;2023-03-23T00:46:34;16.10;55.90
38436;DHT22;24220;48.168;14.024;2023-03-23T00:49:15;16.10;56.10
38436;DHT22;24220;48.168;14.024;2023-03-23T00:51:42;16.00;56.20
38436;DHT22;24220;48.168;14.024;2023-03-23T00:54:09;16.00;56.30
38436;DHT22;24220;48.168;14.024;2023-03-23T00:56:37;15.90;56.40
38436;DHT22;24220;48.168;14.024;2023-03-23T00:59:05;15.90;56.40
38436;DHT22;24220;48.168;14.024;2023-03-23T01:01:32;15.80;56.60
38436;DHT22;24220;48.168;14.024;2023-03-23T01:03:59;15.80;56.70
38436;DHT22;24220;48.168;14.024;2023-03-23T01:06:31;15.80;56.80
38436;DHT22;24220;48.168;14.024;2023-03-23T01:08:58;15.70;56.90
38436;DHT22;24220;48.168;14.024;2023-03-23T01:11:27;15.70;57.00
38436;DHT22;24220;48.168;14.024;2023-03-23T01:13:54;15.60;57.20
38436;DHT22;24220;48.168;14.024;2023-03-23T01:16:21;15.60;57.40
38436;DHT22;24220;48.168;14.024;2023-03-23T01:18:53;15.60;57.40
38436;DHT22;24220;48.168;14.024;2023-03-23T01:21:22;15.60;57.50
38436;DHT22;24220;48.168;14.024;2023-03-23T01:23:50;15.60;57.60
38436;DHT22;24220;48.168;14.024;2023-03-23T01:26:24;15.60;57.40
38436;DHT22;24220;48.168;14.024;2023-03-23T01:28:56;15.50;57.50
38436;DHT22;24220;48.168;14.024;2023-03-23T01:31:24;15.50;57.50
38436;DHT22;24220;48.168;14.024;2023-03-23T01:33:51;15.50;57.70
38436;DHT22;24220;48.168;14.024;2023-03-23T01:36:24;15.50;57.70
38436;DHT22;24220;48.168;14.024;2023-03-23T01:38:55;15.40;57.70
38436;DHT22;24220;48.168;14.024;2023-03-23T01:41:24;15.40;57.70
38436;DHT22;24220;48.168;14.024;2023-03-23T01:44:04;15.40;57.80
38436;DHT22;24220;48.168;14.024;2023-03-23T01:46:36;15.40;57.90
38436;DHT22;24220;48.168;14.024;2023-03-23T01:49:06;15.40;57.90
38436;DHT22;24220;48.168;14.024;2023-03-23T01:51:40;15.40;57.50
38436;DHT22;24220;48.168;14.024;2023-03-23T01:54:10;15.40;57.80
38436;DHT22;24220;48.168;14.024;2023-03-23T01:56:41;15.40;57.80
38436;DHT22;24220;48.168;14.024;2023-03-23T01:59:12;15.30;57.90
38436;DHT22;24220;48.168;14.024;2023-03-23T02:01:41;15.40;58.10
38436;DHT22;24220;48.168;14.024;2023-03-23T02:04:15;15.30;58.10
38436;DHT22;24220;48.168;14.024;2023-03-23T02:06:43;15.30;58.20
38436;DHT22;24220;48.168;14.024;2023-03-23T02:09:15;15.30;58.20
38436;DHT22;24220;48.168;14.024;2023-03-23T02:11:43;15.20;58.40
38436;DHT22;24220;48.168;14.024;2023-03-23T02:14:10;15.20;58.30
38436;DHT22;24220;48.168;14.024;2023-03-23T02:24:56;15.10;58.40
38436;DHT22;24220;48.168;14.024;2023-03-23T02:27:41;15.10;58.50
38436;DHT22;24220;48.168;14.024;2023-03-23T02:35:21;15.10;58.60
38436;DHT22;24220;48.168;14.024;2023-03-23T02:38:02;15.10;58.60
38436;DHT22;24220;48.168;14.024;2023-03-23T02:40:35;15.00;58.70
38436;DHT22;24220;48.168;14.024;2023-03-23T02:43:11;15.00;58.60
38436;DHT22;24220;48.168;14.024;2023-03-23T02:45:38;15.00;58.60
38436;DHT22;24220;48.168;14.024;2023-03-23T02:48:08;15.00;58.50
38436;DHT22;24220;48.168;14.024;2023-03-23T02:50:43;15.00;58.50
38436;DHT22;24220;48.168;14.024;2023-03-23T02:53:13;15.00;58.70
38436;DHT22;24220;48.168;14.024;2023-03-23T02:55:43;15.00;58.50
38436;DHT22;24220;48.168;14.024;2023-03-23T02:58:11;14.90;58.50
38436;DHT22;24220;48.168;14.024;2023-03-23T03:00:41;14.90;58.70
38436;DHT22;24220;48.168;14.024;2023-03-23T03:03:16;14.90;58.60
38436;DHT22;24220;48.168;14.024;2023-03-23T03:06:14;14.90;58.70
38436;DHT22;24220;48.168;14.024;2023-03-23T03:08:55;14.80;58.70
38436;DHT22;24220;48.168;14.024;2023-03-23T03:11:27;14.90;58.70
38436;DHT22;24220;48.168;14.024;2023-03-23T03:16:33;14.80;58.60
38436;DHT22;24220;48.168;14.024;2023-03-23T03:19:19;14.80;58.30
38436;DHT22;24220;48.168;14.024;2023-03-23T03:21:48;14.80;58.50
38436;DHT22;24220;48.168;14.024;2023-03-23T03:24:19;14.80;58.70
38436;DHT22;24220;48.168;14.024;2023-03-23T03:26:48;14.80;58.90
38436;DHT22;24220;48.168;14.024;2023-03-23T03:29:18;14.70;58.80
38436;DHT22;24220;48.168;14.024;2023-03-23T03:31:45;14.70;58.90
38436;DHT22;24220;48.168;14.024;2023-03-23T03:34:16;14.70;58.90
38436;DHT22;24220;48.168;14.024;2023-03-23T03:36:48;14.70;59.00
38436;DHT22;24220;48.168;14.024;2023-03-23T03:39:18;14.70;59.10
38436;DHT22;24220;48.168;14.024;2023-03-23T03:41:49;14.70;59.10
38436;DHT22;24220;48.168;14.024;2023-03-23T03:44:20;14.60;59.10
38436;DHT22;24220;48.168;14.024;2023-03-23T03:46:46;14.60;59.10
38436;DHT22;24220;48.168;14.024;2023-03-23T03:49:13;14.60;59.00
38436;DHT22;24220;48.168;14.024;2023-03-23T03:51:40;14.60;59.10
38436;DHT22;24220;48.168;14.024;2023-03-23T03:54:07;14.60;59.20
38436;DHT22;24220;48.168;14.024;2023-03-23T03:56:38;14.60;59.40
38436;DHT22;24220;48.168;14.024;2023-03-23T03:59:08;14.60;59.50
38436;DHT22;24220;48.168;14.024;2023-03-23T04:01:38;14.60;59.50
38436;DHT22;24220;48.168;14.024;2023-03-23T04:04:08;14.50;59.60
38436;DHT22;24220;48.168;14.024;2023-03-23T04:06:36;14.50;59.40
38436;DHT22;24220;48.168;14.024;2023-03-23T04:09:06;14.50;59.40
38436;DHT22;24220;48.168;14.024;2023-03-23T04:11:37;14.60;59.70
38436;DHT22;24220;48.168;14.024;2023-03-23T04:14:04;14.60;59.30
38436;DHT22;24220;48.168;14.024;2023-03-23T04:16:35;14.50;59.20
38436;DHT22;24220;48.168;14.024;2023-03-23T04:19:01;14.50;59.50
38436;DHT22;24220;48.168;14.024;2023-03-23T04:21:30;14.50;59.50
38436;DHT22;24220;48.168;14.024;2023-03-23T04:23:57;14.50;59.70
38436;DHT22;24220;48.168;14.024;2023-03-23T04:26:29;14.40;59.50
38436;DHT22;24220;48.168;14.024;2023-03-23T04:28:58;14.40;59.50
38436;DHT22;24220;48.168;14.024;2023-03-23T04:31:31;14.40;59.40
38436;DHT22;24220;48.168;14.024;2023-03-23T04:33:59;14.40;59.50
38436;DHT22;24220;48.168;14.024;2023-03-23T04:36:32;14.40;59.50
38436;DHT22;24220;48.168;14.024;2023-03-23T04:39:02;14.40;59.60
38436;DHT22;24220;48.168;14.024;2023-03-23T04:41:32;14.40;59.70
38436;DHT22;24220;48.168;14.024;2023-03-23T04:44:01;14.40;59.60
38436;DHT22;24220;48.168;14.024;2023-03-23T04:46:31;14.40;59.60
38436;DHT22;24220;48.168;14.024;2023-03-23T04:49:04;14.30;59.60
38436;DHT22;24220;48.168;14.024;2023-03-23T04:51:33;14.30;59.60
38436;DHT22;24220;48.168;14.024;2023-03-23T04:54:04;14.30;59.50
38436;DHT22;24220;48.168;14.024;2023-03-23T04:56:30;14.30;60.10
38436;DHT22;24220;48.168;14.024;2023-03-23T04:59:01;14.30;59.60
38436;DHT22;24220;48.168;14.024;2023-03-23T05:01:27;14.30;59.70
38436;DHT22;24220;48.168;14.024;2023-03-23T05:03:56;14.30;59.70
38436;DHT22;24220;48.168;14.024;2023-03-23T05:06:22;14.30;59.70
38436;DHT22;24220;48.168;14.024;2023-03-23T05:08:51;14.30;59.70
38436;DHT22;24220;48.168;14.024;2023-03-23T05:11:17;14.20;59.80
38436;DHT22;24220;48.168;14.024;2023-03-23T05:13:48;14.20;59.80
38436;DHT22;24220;48.168;14.024;2023-03-23T05:16:14;14.20;59.90
38436;DHT22;24220;48.168;14.024;2023-03-23T05:18:43;14.20;59.80
38436;DHT22;24220;48.168;14.024;2023-03-23T05:21:13;14.20;59.80
38436;DHT22;24220;48.168;14.024;2023-03-23T05:23:45;14.20;59.70
38436;DHT22;24220;48.168;14.024;2023-03-23T05:26:13;14.20;59.80
38436;DHT22;24220;48.168;14.024;2023-03-23T05:28:40;14.20;59.70
38436;DHT22;24220;48.168;14.024;2023-03-23T05:31:08;14.20;59.70
38436;DHT22;24220;48.168;14.024;2023-03-23T05:33:34;14.20;59.70
38436;DHT22;24220;48.168;14.024;2023-03-23T05:36:02;14.20;59.70
38436;DHT22;24220;48.168;14.024;2023-03-23T05:38:32;14.20;59.70
38436;DHT22;24220;48.168;14.024;2023-03-23T05:41:01;14.30;59.80
38436;DHT22;24220;48.168;14.024;2023-03-23T05:43:27;14.30;59.70
38436;DHT22;24220;48.168;14.024;2023-03-23T05:45:58;14.30;59.90
38436;DHT22;24220;48.168;14.024;2023-03-23T05:48:27;14.30;60.10
38436;DHT22;24220;48.168;14.024;2023-03-23T05:50:53;14.30;60.00
38436;DHT22;24220;48.168;14.024;2023-03-23T05:53:22;14.30;60.00
38436;DHT22;24220;48.168;14.024;2023-03-23T05:55:51;14.30;60.00
38436;DHT22;24220;48.168;14.024;2023-03-23T05:58:21;14.40;59.90
38436;DHT22;24220;48.168;14.024;2023-03-23T06:00:52;14.40;60.00
38436;DHT22;24220;48.168;14.024;2023-03-23T06:03:21;14.40;60.00
38436;DHT22;24220;48.168;14.024;2023-03-23T06:05:53;14.40;60.00
38436;DHT22;24220;48.168;14.024;2023-03-23T06:08:19;14.40;60.10
38436;DHT22;24220;48.168;14.024;2023-03-23T06:10:51;14.40;60.00
38436;DHT22;24220;48.168;14.024;2023-03-23T06:13:22;14.40;60.00
38436;DHT22;24220;48.168;14.024;2023-03-23T06:15:55;14.40;60.10
38436;DHT22;24220;48.168;14.024;2023-03-23T06:18:24;14.50;60.20
38436;DHT22;24220;48.168;14.024;2023-03-23T06:20:54;14.50;60.20
38436;DHT22;24220;48.168;14.024;2023-03-23T06:23:20;14.50;60.20
38436;DHT22;24220;48.168;14.024;2023-03-23T06:25:55;14.50;60.30
38436;DHT22;24220;48.168;14.024;2023-03-23T06:28:23;14.50;60.10
38436;DHT22;24220;48.168;14.024;2023-03-23T06:30:52;14.50;59.90
38436;DHT22;24220;48.168;14.024;2023-03-23T06:33:22;14.50;59.80
38436;DHT22;24220;48.168;14.024;2023-03-23T06:35:51;14.50;59.80
38436;DHT22;24220;48.168;14.024;2023-03-23T06:38:17;14.50;60.00
38436;DHT22;24220;48.168;14.024;2023-03-23T06:40:44;14.50;60.10
38436;DHT22;24220;48.168;14.024;2023-03-23T06:43:13;14.50;60.10
38436;DHT22;24220;48.168;14.024;2023-03-23T06:45:40;14.60;60.20
38436;DHT22;24220;48.168;14.024;2023-03-23T06:48:09;14.60;60.30
38436;DHT22;24220;48.168;14.024;2023-03-23T06:50:42;14.60;60.10
38436;DHT22;24220;48.168;14.024;2023-03-23T06:53:12;14.60;60.30
38436;DHT22;24220;48.168;14.024;2023-03-23T06:55:43;14.70;60.30
38436;DHT22;24220;48.168;14.024;2023-03-23T06:58:10;14.70;60.40
38436;DHT22;24220;48.168;14.024;2023-03-23T07:00:36;14.70;61.00
38436;DHT22;24220;48.168;14.024;2023-03-23T07:03:04;14.70;60.30
38436;DHT22;24220;48.168;14.024;2023-03-23T07:05:34;14.70;60.40
38436;DHT22;24220;48.168;14.024;2023-03-23T07:08:03;14.80;60.50
38436;DHT22;24220;48.168;14.024;2023-03-23T07:10:32;14.80;60.50
38436;DHT22;24220;48.168;14.024;2023-03-23T07:12:59;14.80;60.60
38436;DHT22;24220;48.168;14.024;2023-03-23T07:15:26;14.90;60.80
38436;DHT22;24220;48.168;14.024;2023-03-23T07:17:55;14.90;61.00
38436;DHT22;24220;48.168;14.024;2023-03-23T07:20:21;15.00;61.00
38436;DHT22;24220;48.168;14.024;2023-03-23T07:22:50;15.10;61.20
38436;DHT22;24220;48.168;14.024;2023-03-23T07:25:17;15.20;61.10
38436;DHT22;24220;48.168;14.024;2023-03-23T07:27:45;15.30;60.70
38436;DHT22;24220;48.168;14.024;2023-03-23T07:30:12;15.40;60.80
38436;DHT22;24220;48.168;14.024;2023-03-23T07:32:43;15.50;60.90
38436;DHT22;24220;48.168;14.024;2023-03-23T07:35:10;15.60;60.70
38436;DHT22;24220;48.168;14.024;2023-03-23T07:37:36;15.80;60.70
38436;DHT22;24220;48.168;14.024;2023-03-23T07:40:05;15.90;60.20
38436;DHT22;24220;48.168;14.024;2023-03-23T07:42:44;16.10;60.00
38436;DHT22;24220;48.168;14.024;2023-03-23T07:45:16;16.30;59.50
38436;DHT22;24220;48.168;14.024;2023-03-23T07:47:45;16.40;59.20
38436;DHT22;24220;48.168;14.024;2023-03-23T07:50:11;16.60;59.10
38436;DHT22;24220;48.168;14.024;2023-03-23T07:52:38;16.70;58.70
38436;DHT22;24220;48.168;14.024;2023-03-23T07:55:06;16.90;58.80
38436;DHT22;24220;48.168;14.024;2023-03-23T07:57:34;17.00;58.30
38436;DHT22;24220;48.168;14.024;2023-03-23T08:00:01;17.00;58.00
38436;DHT22;24220;48.168;14.024;2023-03-23T08:02:31;17.10;57.80
38436;DHT22;24220;48.168;14.024;2023-03-23T08:04:57;17.10;57.50
38436;DHT22;24220;48.168;14.024;2023-03-23T08:07:26;17.10;57.50
38436;DHT22;24220;48.168;14.024;2023-03-23T08:09:57;17.20;57.40
38436;DHT22;24220;48.168;14.024;2023-03-23T08:12:26;17.20;57.30
38436;DHT22;24220;48.168;14.024;2023-03-23T08:14:57;17.20;57.50
38436;DHT22;24220;48.168;14.024;2023-03-23T08:17:25;17.20;57.30
38436;DHT22;24220;48.168;14.024;2023-03-23T08:19:51;17.30;57.20
38436;DHT22;24220;48.168;14.024;2023-03-23T08:22:18;17.40;57.40
38436;DHT22;24220;48.168;14.024;2023-03-23T08:24:45;17.50;57.00
38436;DHT22;24220;48.168;14.024;2023-03-23T08:27:12;17.70;57.10
38436;DHT22;24220;48.168;14.024;2023-03-23T08:29:38;17.80;57.30
38436;DHT22;24220;48.168;14.024;2023-03-23T08:32:04;17.90;57.30
38436;DHT22;24220;48.168;14.024;2023-03-23T08:34:31;18.10;57.10
38436;DHT22;24220;48.168;14.024;2023-03-23T08:36:58;18.20;56.50
38436;DHT22;24220;48.168;14.024;2023-03-23T08:39:25;18.40;55.90
38436;DHT22;24220;48.168;14.024;2023-03-23T08:41:52;18.50;55.60
38436;DHT22;24220;48.168;14.024;2023-03-23T08:44:19;18.60;55.30
38436;DHT22;24220;48.168;14.024;2023-03-23T08:46:48;18.70;55.50
38436;DHT22;24220;48.168;14.024;2023-03-23T08:49:15;18.90;55.30
38436;DHT22;24220;48.168;14.024;2023-03-23T08:51:45;19.00;54.90
38436;DHT22;24220;48.168;14.024;2023-03-23T08:54:18;19.00;54.70
38436;DHT22;24220;48.168;14.024;2023-03-23T08:56:45;19.20;53.80
38436;DHT22;24220;48.168;14.024;2023-03-23T08:59:15;19.20;54.10
38436;DHT22;24220;48.168;14.024;2023-03-23T09:01:45;19.30;53.30
38436;DHT22;24220;48.168;14.024;2023-03-23T09:04:12;19.40;53.70
38436;DHT22;24220;48.168;14.024;2023-03-23T09:06:40;19.40;53.30
38436;DHT22;24220;48.168;14.024;2023-03-23T09:09:10;19.40;53.40
38436;DHT22;24220;48.168;14.024;2023-03-23T09:11:41;19.50;53.40
38436;DHT22;24220;48.168;14.024;2023-03-23T09:14:07;19.50;53.30
38436;DHT22;24220;48.168;14.024;2023-03-23T09:16:34;19.60;53.90
38436;DHT22;24220;48.168;14.024;2023-03-23T09:19:03;19.70;54.50
38436;DHT22;24220;48.168;14.024;2023-03-23T09:21:30;19.70;54.80
38436;DHT22;24220;48.168;14.024;2023-03-23T09:23:57;19.80;54.50
38436;DHT22;24220;48.168;14.024;2023-03-23T09:26:25;19.80;54.30
38436;DHT22;24220;48.168;14.024;2023-03-23T09:28:54;19.80;54.50
38436;DHT22;24220;48.168;14.024;2023-03-23T09:31:22;19.80;54.50
38436;DHT22;24220;48.168;14.024;2023-03-23T09:33:55;19.80;54.20
38436;DHT22;24220;48.168;14.024;2023-03-23T09:36:25;19.70;54.20
38436;DHT22;24220;48.168;14.024;2023-03-23T09:38:55;19.70;54.30
38436;DHT22;24220;48.168;14.024;2023-03-23T09:49:42;19.70;54.90
38436;DHT22;24220;48.168;14.024;2023-03-23T09:52:17;19.70;55.40
38436;DHT22;24220;48.168;14.024;2023-03-23T09:54:50;19.70;54.90
38436;DHT22;24220;48.168;14.024;2023-03-23T10:00:23;19.80;55.40
38436;DHT22;24220;48.168;14.024;2023-03-23T10:03:16;19.70;55.40
38436;DHT22;24220;48.168;14.024;2023-03-23T10:05:51;19.70;54.60
38436;DHT22;24220;48.168;14.024;2023-03-23T10:08:24;19.80;55.20
38436;DHT22;24220;48.168;14.024;2023-03-23T10:16:12;19.70;55.50
38436;DHT22;24220;48.168;14.024;2023-03-23T10:18:55;19.80;56.00
38436;DHT22;24220;48.168;14.024;2023-03-23T10:21:35;19.90;56.30
38436;DHT22;24220;48.168;14.024;2023-03-23T10:24:15;19.90;56.80
38436;DHT22;24220;48.168;14.024;2023-03-23T10:29:34;20.10;56.40
38436;DHT22;24220;48.168;14.024;2023-03-23T10:35:00;20.40;55.90
38436;DHT22;24220;48.168;14.024;2023-03-23T10:37:35;20.50;56.80
38436;DHT22;24220;48.168;14.024;2023-03-23T10:40:14;20.60;55.60
38436;DHT22;24220;48.168;14.024;2023-03-23T10:42:41;20.70;55.60
38436;DHT22;24220;48.168;14.024;2023-03-23T10:45:23;20.80;56.40
38436;DHT22;24220;48.168;14.024;2023-03-23T10:48:14;20.90;55.80
38436;DHT22;24220;48.168;14.024;2023-03-23T10:50:57;21.00;56.40
38436;DHT22;24220;48.168;14.024;2023-03-23T10:53:43;21.10;56.10
38436;DHT22;24220;48.168;14.024;2023-03-23T10:56:40;21.20;54.90
38436;DHT22;24220;48.168;14.024;2023-03-23T10:59:19;21.30;55.30
38436;DHT22;24220;48.168;14.024;2023-03-23T11:01:55;21.50;54.30
38436;DHT22;24220;48.168;14.024;2023-03-23T11:04:24;21.50;54.70
38436;DHT22;24220;48.168;14.024;2023-03-23T11:07:01;21.60;53.40
38436;DHT22;24220;48.168;14.024;2023-03-23T11:09:37;21.80;53.80
38436;DHT22;24220;48.168;14.024;2023-03-23T11:12:04;21.90;52.50
38436;DHT22;24220;48.168;14.024;2023-03-23T11:14:41;21.90;52.30
38436;DHT22;24220;48.168;14.024;2023-03-23T11:17:25;22.00;52.10
38436;DHT22;24220;48.168;14.024;2023-03-23T11:19:53;22.10;51.40
38436;DHT22;24220;48.168;14.024;2023-03-23T11:22:32;22.20;50.70
38436;DHT22;24220;48.168;14.024;2023-03-23T11:25:04;22.20;51.20
38436;DHT22;24220;48.168;14.024;2023-03-23T11:27:34;22.30;50.40
38436;DHT22;24220;48.168;14.024;2023-03-23T11:30:22;22.40;51.90
38436;DHT22;24220;48.168;14.024;2023-03-23T11:32:54;22.40;50.40
38436;DHT22;24220;48.168;14.024;2023-03-23T11:35:23;22.50;50.20
38436;DHT22;24220;48.168;14.024;2023-03-23T11:38:11;22.60;51.40
38436;DHT22;24220;48.168;14.024;2023-03-23T11:40:50;22.70;52.70
38436;DHT22;24220;48.168;14.024;2023-03-23T11:43:24;22.80;49.60
38436;DHT22;24220;48.168;14.024;2023-03-23T11:45:56;22.80;49.00
38436;DHT22;24220;48.168;14.024;2023-03-23T11:48:32;22.90;50.80
38436;DHT22;24220;48.168;14.024;2023-03-23T11:51:19;23.00;50.20
38436;DHT22;24220;48.168;14.024;2023-03-23T11:56:34;23.10;48.60
38436;DHT22;24220;48.168;14.024;2023-03-23T11:59:13;23.10;50.20
38436;DHT22;24220;48.168;14.024;2023-03-23T12:24:15;23.70;49.10
38436;DHT22;24220;48.168;14.024;2023-03-23T12:30:35;23.80;48.10
38436;DHT22;24220;48.168;14.024;2023-03-23T12:46:49;24.00;48.40
38436;DHT22;24220;48.168;14.024;2023-03-23T12:52:10;24.10;46.90
38436;DHT22;24220;48.168;14.024;2023-03-23T12:57:56;24.40;46.00
38436;DHT22;24220;48.168;14.024;2023-03-23T13:06:20;24.60;46.80
38436;DHT22;24220;48.168;14.024;2023-03-23T13:08:34;24.70;45.80
38436;DHT22;24220;48.168;14.024;2023-03-23T13:11:10;24.80;46.40
38436;DHT22;24220;48.168;14.024;2023-03-23T13:20:34;24.90;46.10
38436;DHT22;24220;48.168;14.024;2023-03-23T13:23:19;24.90;46.80
38436;DHT22;24220;48.168;14.024;2023-03-23T13:28:24;24.90;45.20
38436;DHT22;24220;48.168;14.024;2023-03-23T13:33:33;24.90;45.30
38436;DHT22;24220;48.168;14.024;2023-03-23T13:36:13;24.80;44.70
38436;DHT22;24220;48.168;14.024;2023-03-23T13:38:49;24.80;45.20
38436;DHT22;24220;48.168;14.024;2023-03-23T13:41:24;24.80;45.10
38436;DHT22;24220;48.168;14.024;2023-03-23T13:44:05;24.80;44.10
38436;DHT22;24220;48.168;14.024;2023-03-23T13:46:31;24.80;44.60
38436;DHT22;24220;48.168;14.024;2023-03-23T13:49:19;24.80;44.10
38436;DHT22;24220;48.168;14.024;2023-03-23T13:52:17;24.80;43.60
38436;DHT22;24220;48.168;14.024;2023-03-23T13:54:46;24.70;43.90
38436;DHT22;24220;48.168;14.024;2023-03-23T13:57:36;24.70;42.90
38436;DHT22;24220;48.168;14.024;2023-03-23T14:11:09;24.50;43.00
38436;DHT22;24220;48.168;14.024;2023-03-23T14:16:21;24.40;42.70
38436;DHT22;24220;48.168;14.024;2023-03-23T14:18:57;24.40;42.70
38436;DHT22;24220;48.168;14.024;2023-03-23T14:24:09;24.30;42.40
38436;DHT22;24220;48.168;14.024;2023-03-23T14:26:36;24.30;42.90
38436;DHT22;24220;48.168;14.024;2023-03-23T14:29:04;24.30;42.80
38436;DHT22;24220;48.168;14.024;2023-03-23T14:31:35;24.30;43.00
38436;DHT22;24220;48.168;14.024;2023-03-23T14:34:11;24.20;42.60
38436;DHT22;24220;48.168;14.024;2023-03-23T14:36:42;24.20;42.50
38436;DHT22;24220;48.168;14.024;2023-03-23T14:39:23;24.20;43.40
38436;DHT22;24220;48.168;14.024;2023-03-23T14:41:54;24.20;42.80
38436;DHT22;24220;48.168;14.024;2023-03-23T14:44:35;24.20;42.90
38436;DHT22;24220;48.168;14.024;2023-03-23T14:47:10;24.10;42.70
38436;DHT22;24220;48.168;14.024;2023-03-23T14:49:43;24.20;42.20
38436;DHT22;24220;48.168;14.024;2023-03-23T14:52:14;24.20;42.50
38436;DHT22;24220;48.168;14.024;2023-03-23T14:54:45;24.10;42.60
38436;DHT22;24220;48.168;14.024;2023-03-23T14:57:12;24.00;42.30
38436;DHT22;24220;48.168;14.024;2023-03-23T14:59:48;24.00;42.50
38436;DHT22;24220;48.168;14.024;2023-03-23T15:02:38;24.00;43.00
38436;DHT22;24220;48.168;14.024;2023-03-23T15:05:16;24.00;43.10
38436;DHT22;24220;48.168;14.024;2023-03-23T15:07:49;24.00;43.10
38436;DHT22;24220;48.168;14.024;2023-03-23T15:10:19;24.00;43.70
38436;DHT22;24220;48.168;14.024;2023-03-23T15:12:48;23.90;42.80
38436;DHT22;24220;48.168;14.024;2023-03-23T15:15:22;23.90;43.50
38436;DHT22;24220;48.168;14.024;2023-03-23T15:17:51;23.80;43.10
38436;DHT22;24220;48.168;14.024;2023-03-23T15:20:22;23.80;43.40
38436;DHT22;24220;48.168;14.024;2023-03-23T15:22:52;23.80;43.30
38436;DHT22;24220;48.168;14.024;2023-03-23T15:30:36;23.60;44.70
38436;DHT22;24220;48.168;14.024;2023-03-23T15:33:10;23.60;44.10
38436;DHT22;24220;48.168;14.024;2023-03-23T15:35:45;23.60;42.80
38436;DHT22;24220;48.168;14.024;2023-03-23T15:38:29;23.50;43.90
38436;DHT22;24220;48.168;14.024;2023-03-23T15:40:58;23.50;44.10
38436;DHT22;24220;48.168;14.024;2023-03-23T15:43:28;23.50;45.20
38436;DHT22;24220;48.168;14.024;2023-03-23T15:46:27;23.50;45.40
38436;DHT22;24220;48.168;14.024;2023-03-23T15:51:29;23.40;45.50
38436;DHT22;24220;48.168;14.024;2023-03-23T15:53:58;23.30;45.80
38436;DHT22;24220;48.168;14.024;2023-03-23T15:56:25;23.30;46.30
38436;DHT22;24220;48.168;14.024;2023-03-23T15:58:52;23.30;46.40
38436;DHT22;24220;48.168;14.024;2023-03-23T16:01:27;23.20;46.00
38436;DHT22;24220;48.168;14.024;2023-03-23T16:06:29;23.20;46.30
38436;DHT22;24220;48.168;14.024;2023-03-23T16:09:00;23.20;45.80
38436;DHT22;24220;48.168;14.024;2023-03-23T16:11:31;23.20;47.90
38436;DHT22;24220;48.168;14.024;2023-03-23T16:14:03;23.10;47.40
38436;DHT22;24220;48.168;14.024;2023-03-23T16:16:40;23.10;47.30
38436;DHT22;24220;48.168;14.024;2023-03-23T16:19:14;23.10;47.50
38436;DHT22;24220;48.168;14.024;2023-03-23T16:21:42;23.10;47.40
38436;DHT22;24220;48.168;14.024;2023-03-23T16:24:13;23.10;47.40
38436;DHT22;24220;48.168;14.024;2023-03-23T16:26:45;23.00;47.30
38436;DHT22;24220;48.168;14.024;2023-03-23T16:29:16;23.00;47.20
38436;DHT22;24220;48.168;14.024;2023-03-23T16:32:03;23.00;46.90
38436;DHT22;24220;48.168;14.024;2023-03-23T16:34:31;22.90;47.00
38436;DHT22;24220;48.168;14.024;2023-03-23T16:37:05;22.90;47.30
38436;DHT22;24220;48.168;14.024;2023-03-23T16:39:33;22.90;48.00
38436;DHT22;24220;48.168;14.024;2023-03-23T16:42:03;22.80;47.60
38436;DHT22;24220;48.168;14.024;2023-03-23T16:44:30;22.80;48.00
38436;DHT22;24220;48.168;14.024;2023-03-23T16:47:02;22.80;48.10
38436;DHT22;24220;48.168;14.024;2023-03-23T16:49:30;22.70;48.30
38436;DHT22;24220;48.168;14.024;2023-03-23T16:51:57;22.70;48.30
38436;DHT22;24220;48.168;14.024;2023-03-23T16:54:27;22.70;48.40
38436;DHT22;24220;48.168;14.024;2023-03-23T16:56:57;22.60;48.00
38436;DHT22;24220;48.168;14.024;2023-03-23T16:59:27;22.60;47.60
38436;DHT22;24220;48.168;14.024;2023-03-23T17:01:59;22.50;47.40
38436;DHT22;24220;48.168;14.024;2023-03-23T17:07:42;22.50;47.90
38436;DHT22;24220;48.168;14.024;2023-03-23T17:10:14;22.40;47.70
38436;DHT22;24220;48.168;14.024;2023-03-23T17:16:13;22.40;47.50
38436;DHT22;24220;48.168;14.024;2023-03-23T17:19:03;22.30;47.80
38436;DHT22;24220;48.168;14.024;2023-03-23T17:21:40;22.30;48.20
38436;DHT22;24220;48.168;14.024;2023-03-23T17:24:10;22.20;48.50
38436;DHT22;24220;48.168;14.024;2023-03-23T17:26:39;22.20;48.90
38436;DHT22;24220;48.168;14.024;2023-03-23T17:29:07;22.10;48.80
38436;DHT22;24220;48.168;14.024;2023-03-23T17:31:34;22.10;48.60
38436;DHT22;24220;48.168;14.024;2023-03-23T17:34:02;22.00;48.40
38436;DHT22;24220;48.168;14.024;2023-03-23T17:36:30;22.00;48.50
38436;DHT22;24220;48.168;14.024;2023-03-23T17:38:58;21.90;48.50
38436;DHT22;24220;48.168;14.024;2023-03-23T17:41:28;21.90;48.40
38436;DHT22;24220;48.168;14.024;2023-03-23T17:43:56;21.80;48.30
38436;DHT22;24220;48.168;14.024;2023-03-23T17:46:26;21.70;48.40
38436;DHT22;24220;48.168;14.024;2023-03-23T17:48:54;21.70;48.20
38436;DHT22;24220;48.168;14.024;2023-03-23T17:51:38;21.60;48.20
38436;DHT22;24220;48.168;14.024;2023-03-23T17:54:05;21.60;48.50
38436;DHT22;24220;48.168;14.024;2023-03-23T17:56:35;21.50;48.30
38436;DHT22;24220;48.168;14.024;2023-03-23T17:59:03;21.50;48.90